Pineland, FL (33945)

1:24 PM EDT on May 05, 2015 (GMT -0400)
Calusa Ridge | | Change Station
CLOSE
Current Station
Personal Weather Station
Location: Bokeelia, FL
Elevation: 13 ft
Nearby Weather Stations

Elev 13 ft 26.64 °N, 82.13 °W | Updated 3 seconds ago

Partly Cloudy
Partly Cloudy
83.9 °F
Feels Like 89 °F
N
8.0
Wind Variable Wind from East
Gusts 22.0 mph

Today
High -- | Low -- °F
--% Chance of Precip.
Yesterday
High -- | Low -- °F
Precip. -- in
6:47 AM 8:03 PM
Full, 97% visible
Pressure 30.12 in
Visibility 10.0 miles
Clouds Scattered Clouds 2800 ft
Heat Index 89 °F
Dew Point 72 °F
Humidity 67%
Rainfall 0.00 in
Snow Depth Not available.
UV 12 out of 12
Pollen 6.10 out of 12
Air Quality Not available.
Flu Activity Local Activity
METAR KFMY 051653Z 09011G16KT 10SM SCT028 26/19 A3011 RMK AO2 SLP197 T02610194

More Conditions Fewer Conditions

Pressure 30.12 in
Visibility 10.0 miles
Clouds Scattered Clouds 2800 ft
Heat Index 89 °F
Dew Point 72 °F
Humidity 67%
Rainfall 0.00 in
Snow Depth Not available.
UV 12 out of 12
Pollen 6.10 out of 12
Air Quality Not available.
Flu Activity Local Activity
METAR KFMY 051653Z 09011G16KT 10SM SCT028 26/19 A3011 RMK AO2 SLP197 T02610194

More Conditions Fewer Conditions

10-Day Weather Forecast

Almanac

Astronomy

May. 05, 2015 Rise Set
Actual Time
Civil Twilight
Nautical Twilight
Astronomical Twilight
Moon
Length of Visible Light
Length of Day
Tomorrow will be .
, % of the Moon is Illuminated

Today's Extremes

State Highs State Lows

Community

WunderPhotos

Upload Photos

1,818,946 photos uploaded!

WunderBlogs® & News

Nearby

Air Quality

  Air Quality AQ Index Pollutant
Not available.

Snow Depth

Station Depth Elevation

Earthquake Activity

City Distance Mag. Time & Date
Minimum magnitude displayed is 2.5.

Coastal Water Temperatures

Place Temperature

Stations

Nearby Weather Stations

Station Location Temp. Windchill Dew Point Humidity Wind Precip. Elev Updated Type